sensor_id;sensor_type;location;lat;lon;timestamp;pressure;altitude;pressure_sealevel;temperature;humidity
60583;BME280;46415;47.536;19.066;2023-03-31T00:00:45;100056.47;;;8.48;100.00
60583;BME280;46415;47.536;19.066;2023-03-31T00:03:48;100047.88;;;8.48;100.00
60583;BME280;46415;47.536;19.066;2023-03-31T00:06:51;100046.28;;;8.45;100.00
60583;BME280;46415;47.536;19.066;2023-03-31T00:09:56;100046.19;;;8.47;100.00
60583;BME280;46415;47.536;19.066;2023-03-31T00:13:18;100047.94;;;8.46;100.00
60583;BME280;46415;47.536;19.066;2023-03-31T00:16:21;100038.31;;;8.50;100.00
60583;BME280;46415;47.536;19.066;2023-03-31T00:19:24;100034.75;;;8.52;100.00
60583;BME280;46415;47.536;19.066;2023-03-31T00:22:26;100027.78;;;8.54;100.00
60583;BME280;46415;47.536;19.066;2023-03-31T00:25:29;100024.41;;;8.52;100.00
60583;BME280;46415;47.536;19.066;2023-03-31T00:28:32;100024.66;;;8.46;100.00
60583;BME280;46415;47.536;19.066;2023-03-31T00:31:35;100018.84;;;8.41;100.00
60583;BME280;46415;47.536;19.066;2023-03-31T00:34:41;100017.34;;;8.57;100.00
60583;BME280;46415;47.536;19.066;2023-03-31T00:37:43;100022.06;;;8.46;100.00
60583;BME280;46415;47.536;19.066;2023-03-31T00:40:47;100019.09;;;8.35;100.00
60583;BME280;46415;47.536;19.066;2023-03-31T00:47:17;100018.53;;;8.27;100.00
60583;BME280;46415;47.536;19.066;2023-03-31T00:50:26;100008.44;;;8.43;100.00
60583;BME280;46415;47.536;19.066;2023-03-31T00:53:32;100005.44;;;8.32;100.00
60583;BME280;46415;47.536;19.066;2023-03-31T00:56:39;100010.47;;;8.56;100.00
60583;BME280;46415;47.536;19.066;2023-03-31T00:59:49;100005.34;;;8.55;100.00
60583;BME280;46415;47.536;19.066;2023-03-31T01:02:55;100005.41;;;8.53;100.00
60583;BME280;46415;47.536;19.066;2023-03-31T01:06:04;99991.22;;;8.64;100.00
60583;BME280;46415;47.536;19.066;2023-03-31T01:09:08;99987.59;;;8.68;100.00
60583;BME280;46415;47.536;19.066;2023-03-31T01:12:12;99983.38;;;8.85;100.00
60583;BME280;46415;47.536;19.066;2023-03-31T01:15:18;99993.63;;;9.07;100.00
60583;BME280;46415;47.536;19.066;2023-03-31T01:18:21;99981.28;;;9.32;100.00
60583;BME280;46415;47.536;19.066;2023-03-31T01:21:45;99980.59;;;9.29;100.00
60583;BME280;46415;47.536;19.066;2023-03-31T01:28:46;99985.28;;;9.00;100.00
60583;BME280;46415;47.536;19.066;2023-03-31T01:35:28;99984.00;;;8.70;100.00
60583;BME280;46415;47.536;19.066;2023-03-31T01:49:25;99999.44;;;9.12;100.00
60583;BME280;46415;47.536;19.066;2023-03-31T01:52:44;99995.56;;;9.60;100.00
60583;BME280;46415;47.536;19.066;2023-03-31T01:59:14;99993.41;;;9.51;100.00
60583;BME280;46415;47.536;19.066;2023-03-31T02:02:24;99991.97;;;9.64;100.00
60583;BME280;46415;47.536;19.066;2023-03-31T02:05:33;100001.59;;;9.79;100.00
60583;BME280;46415;47.536;19.066;2023-03-31T02:08:42;99995.50;;;9.80;100.00
60583;BME280;46415;47.536;19.066;2023-03-31T02:11:47;99994.53;;;9.64;100.00
60583;BME280;46415;47.536;19.066;2023-03-31T02:14:53;99994.72;;;9.59;100.00
60583;BME280;46415;47.536;19.066;2023-03-31T02:17:58;99998.38;;;9.74;100.00
60583;BME280;46415;47.536;19.066;2023-03-31T02:21:04;99992.06;;;9.61;100.00
60583;BME280;46415;47.536;19.066;2023-03-31T02:24:10;99986.84;;;9.62;100.00
60583;BME280;46415;47.536;19.066;2023-03-31T02:27:19;99993.19;;;9.55;100.00
60583;BME280;46415;47.536;19.066;2023-03-31T02:33:57;99983.72;;;9.35;100.00
60583;BME280;46415;47.536;19.066;2023-03-31T02:37:00;99982.38;;;9.08;100.00
60583;BME280;46415;47.536;19.066;2023-03-31T02:40:10;99978.13;;;8.87;100.00
60583;BME280;46415;47.536;19.066;2023-03-31T02:43:14;99976.50;;;8.64;100.00
60583;BME280;46415;47.536;19.066;2023-03-31T02:46:17;99967.75;;;8.46;100.00
60583;BME280;46415;47.536;19.066;2023-03-31T02:49:21;99970.84;;;8.34;100.00
60583;BME280;46415;47.536;19.066;2023-03-31T02:53:08;99965.78;;;8.33;100.00
60583;BME280;46415;47.536;19.066;2023-03-31T03:09:24;99957.16;;;8.10;100.00
60583;BME280;46415;47.536;19.066;2023-03-31T03:12:32;99965.47;;;7.97;100.00
60583;BME280;46415;47.536;19.066;2023-03-31T03:15:44;99973.03;;;7.79;100.00
60583;BME280;46415;47.536;19.066;2023-03-31T03:18:57;99976.47;;;7.80;100.00
60583;BME280;46415;47.536;19.066;2023-03-31T03:22:00;99969.78;;;7.96;100.00
60583;BME280;46415;47.536;19.066;2023-03-31T03:25:04;99968.75;;;8.22;100.00
60583;BME280;46415;47.536;19.066;2023-03-31T03:28:07;99969.41;;;8.27;100.00
60583;BME280;46415;47.536;19.066;2023-03-31T03:31:10;99963.16;;;8.11;100.00
60583;BME280;46415;47.536;19.066;2023-03-31T03:34:13;99960.50;;;7.92;100.00
60583;BME280;46415;47.536;19.066;2023-03-31T03:37:16;99966.78;;;7.85;100.00
60583;BME280;46415;47.536;19.066;2023-03-31T03:40:18;99973.81;;;7.82;100.00
60583;BME280;46415;47.536;19.066;2023-03-31T03:43:21;99967.62;;;8.07;100.00
60583;BME280;46415;47.536;19.066;2023-03-31T03:46:25;99969.72;;;8.19;100.00
60583;BME280;46415;47.536;19.066;2023-03-31T03:49:27;99972.38;;;8.40;100.00
60583;BME280;46415;47.536;19.066;2023-03-31T03:52:30;99973.19;;;8.40;100.00
60583;BME280;46415;47.536;19.066;2023-03-31T03:55:33;99967.41;;;8.55;100.00
60583;BME280;46415;47.536;19.066;2023-03-31T03:58:35;99972.94;;;8.46;100.00
60583;BME280;46415;47.536;19.066;2023-03-31T04:01:39;99981.50;;;8.48;100.00
60583;BME280;46415;47.536;19.066;2023-03-31T04:04:42;99973.78;;;8.25;100.00
60583;BME280;46415;47.536;19.066;2023-03-31T04:07:45;99977.78;;;8.12;100.00
60583;BME280;46415;47.536;19.066;2023-03-31T04:10:48;99982.81;;;7.93;100.00
60583;BME280;46415;47.536;19.066;2023-03-31T04:13:51;99979.28;;;7.74;100.00
60583;BME280;46415;47.536;19.066;2023-03-31T04:16:54;99977.78;;;7.68;100.00
60583;BME280;46415;47.536;19.066;2023-03-31T04:20:07;99970.75;;;7.72;100.00
60583;BME280;46415;47.536;19.066;2023-03-31T04:23:11;99960.69;;;7.64;100.00
60583;BME280;46415;47.536;19.066;2023-03-31T04:26:17;99961.28;;;7.49;100.00
60583;BME280;46415;47.536;19.066;2023-03-31T04:29:20;99947.94;;;7.38;100.00
60583;BME280;46415;47.536;19.066;2023-03-31T04:32:24;99969.28;;;7.43;100.00
60583;BME280;46415;47.536;19.066;2023-03-31T04:35:29;99967.78;;;7.59;100.00
60583;BME280;46415;47.536;19.066;2023-03-31T04:38:54;99963.75;;;7.52;100.00
60583;BME280;46415;47.536;19.066;2023-03-31T04:41:58;99958.81;;;7.46;100.00
60583;BME280;46415;47.536;19.066;2023-03-31T04:45:02;99951.19;;;7.43;100.00
60583;BME280;46415;47.536;19.066;2023-03-31T04:48:05;99951.41;;;7.60;100.00
60583;BME280;46415;47.536;19.066;2023-03-31T04:51:07;99954.69;;;7.64;100.00
60583;BME280;46415;47.536;19.066;2023-03-31T04:54:11;99952.09;;;7.64;100.00
60583;BME280;46415;47.536;19.066;2023-03-31T04:57:14;99957.13;;;7.68;100.00
60583;BME280;46415;47.536;19.066;2023-03-31T05:00:17;99949.66;;;7.83;100.00
60583;BME280;46415;47.536;19.066;2023-03-31T05:03:20;99951.22;;;7.87;100.00
60583;BME280;46415;47.536;19.066;2023-03-31T05:06:24;99942.47;;;7.91;100.00
60583;BME280;46415;47.536;19.066;2023-03-31T05:09:26;99938.25;;;8.10;100.00
60583;BME280;46415;47.536;19.066;2023-03-31T05:12:36;99943.81;;;8.21;100.00
60583;BME280;46415;47.536;19.066;2023-03-31T05:15:39;99937.25;;;8.34;100.00
60583;BME280;46415;47.536;19.066;2023-03-31T05:18:42;99935.72;;;8.50;100.00
60583;BME280;46415;47.536;19.066;2023-03-31T05:21:44;99929.50;;;8.54;100.00
60583;BME280;46415;47.536;19.066;2023-03-31T05:24:47;99932.72;;;8.59;100.00
60583;BME280;46415;47.536;19.066;2023-03-31T05:27:50;99924.72;;;8.66;100.00
60583;BME280;46415;47.536;19.066;2023-03-31T05:30:53;99925.19;;;8.75;100.00
60583;BME280;46415;47.536;19.066;2023-03-31T05:33:55;99929.72;;;8.89;100.00
60583;BME280;46415;47.536;19.066;2023-03-31T05:36:58;99922.44;;;9.17;100.00
60583;BME280;46415;47.536;19.066;2023-03-31T05:40:01;99931.09;;;9.54;100.00
60583;BME280;46415;47.536;19.066;2023-03-31T05:43:06;99935.62;;;9.86;100.00
60583;BME280;46415;47.536;19.066;2023-03-31T05:46:09;99933.03;;;10.22;100.00
60583;BME280;46415;47.536;19.066;2023-03-31T05:49:12;99934.16;;;10.51;100.00
60583;BME280;46415;47.536;19.066;2023-03-31T05:52:17;99923.38;;;10.76;100.00
60583;BME280;46415;47.536;19.066;2023-03-31T05:55:20;99926.13;;;11.05;100.00
60583;BME280;46415;47.536;19.066;2023-03-31T05:58:23;99924.75;;;11.31;100.00
60583;BME280;46415;47.536;19.066;2023-03-31T06:01:26;99920.66;;;11.59;100.00
60583;BME280;46415;47.536;19.066;2023-03-31T06:04:31;99919.41;;;11.81;100.00
60583;BME280;46415;47.536;19.066;2023-03-31T06:07:34;99919.88;;;12.04;100.00
60583;BME280;46415;47.536;19.066;2023-03-31T06:10:37;99916.28;;;12.06;100.00
60583;BME280;46415;47.536;19.066;2023-03-31T06:13:40;99911.16;;;12.05;100.00
60583;BME280;46415;47.536;19.066;2023-03-31T06:16:43;99923.00;;;11.95;100.00
60583;BME280;46415;47.536;19.066;2023-03-31T06:19:48;99914.44;;;12.08;100.00
60583;BME280;46415;47.536;19.066;2023-03-31T06:22:51;99910.16;;;12.21;100.00
60583;BME280;46415;47.536;19.066;2023-03-31T06:26:01;99906.00;;;12.19;100.00
60583;BME280;46415;47.536;19.066;2023-03-31T06:29:05;99917.91;;;12.23;100.00
60583;BME280;46415;47.536;19.066;2023-03-31T06:32:08;99916.91;;;12.25;100.00
60583;BME280;46415;47.536;19.066;2023-03-31T06:35:11;99916.47;;;12.47;100.00
60583;BME280;46415;47.536;19.066;2023-03-31T06:38:14;99909.22;;;12.52;100.00
60583;BME280;46415;47.536;19.066;2023-03-31T06:41:17;99914.06;;;12.58;100.00
60583;BME280;46415;47.536;19.066;2023-03-31T06:44:21;99902.22;;;12.68;100.00
60583;BME280;46415;47.536;19.066;2023-03-31T06:47:26;99905.25;;;12.75;100.00
60583;BME280;46415;47.536;19.066;2023-03-31T06:50:28;99900.25;;;12.72;100.00
60583;BME280;46415;47.536;19.066;2023-03-31T06:53:32;99900.91;;;12.90;100.00
60583;BME280;46415;47.536;19.066;2023-03-31T06:56:35;99904.78;;;13.11;100.00
60583;BME280;46415;47.536;19.066;2023-03-31T06:59:39;99907.16;;;13.16;100.00
60583;BME280;46415;47.536;19.066;2023-03-31T07:02:41;99902.75;;;13.30;100.00
60583;BME280;46415;47.536;19.066;2023-03-31T07:05:48;99911.41;;;13.45;100.00
60583;BME280;46415;47.536;19.066;2023-03-31T07:08:52;99899.59;;;13.66;100.00
60583;BME280;46415;47.536;19.066;2023-03-31T07:11:55;99901.69;;;13.88;100.00
60583;BME280;46415;47.536;19.066;2023-03-31T07:14:58;99902.97;;;14.08;95.30
60583;BME280;46415;47.536;19.066;2023-03-31T07:18:01;99895.59;;;14.14;95.49
60583;BME280;46415;47.536;19.066;2023-03-31T07:21:04;99908.75;;;14.25;93.75
60583;BME280;46415;47.536;19.066;2023-03-31T07:24:11;99898.38;;;14.38;91.11
60583;BME280;46415;47.536;19.066;2023-03-31T07:27:14;99891.81;;;14.45;89.57
60583;BME280;46415;47.536;19.066;2023-03-31T07:30:18;99894.84;;;14.77;91.19
60583;BME280;46415;47.536;19.066;2023-03-31T07:33:22;99895.47;;;14.81;93.54
60583;BME280;46415;47.536;19.066;2023-03-31T07:36:25;99882.72;;;14.76;87.50
60583;BME280;46415;47.536;19.066;2023-03-31T07:39:27;99880.97;;;14.89;87.62
60583;BME280;46415;47.536;19.066;2023-03-31T07:42:31;99878.09;;;15.05;87.79
60583;BME280;46415;47.536;19.066;2023-03-31T07:45:34;99869.31;;;15.19;90.23
60583;BME280;46415;47.536;19.066;2023-03-31T07:48:37;99867.56;;;15.43;88.28
60583;BME280;46415;47.536;19.066;2023-03-31T07:51:40;99864.37;;;15.50;85.38
60583;BME280;46415;47.536;19.066;2023-03-31T07:54:43;99847.56;;;15.78;84.82
60583;BME280;46415;47.536;19.066;2023-03-31T07:57:46;99847.38;;;15.69;87.70
60583;BME280;46415;47.536;19.066;2023-03-31T08:00:49;99848.47;;;16.01;86.92
60583;BME280;46415;47.536;19.066;2023-03-31T08:03:52;99848.59;;;16.11;86.41
60583;BME280;46415;47.536;19.066;2023-03-31T08:06:57;99849.13;;;16.27;85.12
60583;BME280;46415;47.536;19.066;2023-03-31T08:10:00;99847.25;;;16.51;84.03
60583;BME280;46415;47.536;19.066;2023-03-31T08:13:02;99850.41;;;16.67;83.92
60583;BME280;46415;47.536;19.066;2023-03-31T08:16:05;99843.94;;;16.49;87.01
60583;BME280;46415;47.536;19.066;2023-03-31T08:19:08;99835.34;;;16.47;87.10
60583;BME280;46415;47.536;19.066;2023-03-31T08:22:11;99827.50;;;16.58;84.86
60583;BME280;46415;47.536;19.066;2023-03-31T08:25:14;99822.25;;;16.58;85.12
60583;BME280;46415;47.536;19.066;2023-03-31T08:28:17;99819.97;;;16.20;88.30
60583;BME280;46415;47.536;19.066;2023-03-31T08:31:21;99822.78;;;16.06;87.33
60583;BME280;46415;47.536;19.066;2023-03-31T08:34:28;99808.72;;;15.96;89.64
60583;BME280;46415;47.536;19.066;2023-03-31T08:37:31;99803.97;;;16.01;88.96
60583;BME280;46415;47.536;19.066;2023-03-31T08:40:34;99800.34;;;15.91;88.49
60583;BME280;46415;47.536;19.066;2023-03-31T08:43:43;99783.38;;;15.97;90.31
60583;BME280;46415;47.536;19.066;2023-03-31T08:46:50;99783.12;;;16.00;88.31
60583;BME280;46415;47.536;19.066;2023-03-31T08:50:02;99777.91;;;16.00;88.54
60583;BME280;46415;47.536;19.066;2023-03-31T08:53:20;99773.03;;;16.06;88.42
60583;BME280;46415;47.536;19.066;2023-03-31T08:56:26;99770.34;;;16.30;89.69
60583;BME280;46415;47.536;19.066;2023-03-31T08:59:32;99763.44;;;16.40;89.65
60583;BME280;46415;47.536;19.066;2023-03-31T09:03:14;99756.28;;;16.42;85.20
60583;BME280;46415;47.536;19.066;2023-03-31T09:06:33;99749.37;;;16.30;85.30
60583;BME280;46415;47.536;19.066;2023-03-31T09:13:06;99740.34;;;16.56;86.75
60583;BME280;46415;47.536;19.066;2023-03-31T09:16:18;99737.22;;;16.51;83.55
60583;BME280;46415;47.536;19.066;2023-03-31T09:19:38;99735.72;;;16.60;83.88
60583;BME280;46415;47.536;19.066;2023-03-31T09:23:00;99721.78;;;16.59;83.98
60583;BME280;46415;47.536;19.066;2023-03-31T09:26:05;99727.22;;;16.45;84.79
60583;BME280;46415;47.536;19.066;2023-03-31T09:29:15;99709.41;;;16.50;84.73
60583;BME280;46415;47.536;19.066;2023-03-31T09:32:24;99710.09;;;16.86;84.54
60583;BME280;46415;47.536;19.066;2023-03-31T09:35:27;99715.50;;;17.05;81.38
60583;BME280;46415;47.536;19.066;2023-03-31T09:38:35;99717.88;;;17.08;83.26
60583;BME280;46415;47.536;19.066;2023-03-31T09:41:43;99710.75;;;16.99;85.01
60583;BME280;46415;47.536;19.066;2023-03-31T09:44:59;99699.47;;;17.19;83.92
60583;BME280;46415;47.536;19.066;2023-03-31T09:48:05;99699.91;;;17.56;80.00
60583;BME280;46415;47.536;19.066;2023-03-31T09:51:17;99690.84;;;17.81;81.93
60583;BME280;46415;47.536;19.066;2023-03-31T09:54:26;99697.81;;;17.71;80.09
60583;BME280;46415;47.536;19.066;2023-03-31T09:57:38;99682.94;;;17.39;83.72
60583;BME280;46415;47.536;19.066;2023-03-31T10:01:07;99684.47;;;17.21;84.87
60583;BME280;46415;47.536;19.066;2023-03-31T10:04:21;99674.94;;;17.41;83.29
60583;BME280;46415;47.536;19.066;2023-03-31T10:07:25;99664.53;;;17.71;81.01
60583;BME280;46415;47.536;19.066;2023-03-31T10:10:32;99656.66;;;17.71;78.39
60583;BME280;46415;47.536;19.066;2023-03-31T10:13:40;99651.50;;;17.90;76.28
60583;BME280;46415;47.536;19.066;2023-03-31T10:16:55;99654.56;;;17.95;74.67
60583;BME280;46415;47.536;19.066;2023-03-31T10:20:13;99642.37;;;18.15;69.37
60583;BME280;46415;47.536;19.066;2023-03-31T10:23:37;99640.22;;;18.00;69.36
60583;BME280;46415;47.536;19.066;2023-03-31T10:26:40;99632.34;;;18.40;70.58
60583;BME280;46415;47.536;19.066;2023-03-31T10:29:43;99636.72;;;18.29;67.21
60583;BME280;46415;47.536;19.066;2023-03-31T10:32:46;99629.97;;;18.36;71.91
60583;BME280;46415;47.536;19.066;2023-03-31T10:35:56;99633.44;;;18.37;67.28
60583;BME280;46415;47.536;19.066;2023-03-31T10:39:06;99629.75;;;18.09;67.77
60583;BME280;46415;47.536;19.066;2023-03-31T10:42:09;99620.63;;;17.73;67.79
60583;BME280;46415;47.536;19.066;2023-03-31T10:45:30;99622.41;;;17.73;68.84
60583;BME280;46415;47.536;19.066;2023-03-31T10:48:41;99623.78;;;17.67;68.27
60583;BME280;46415;47.536;19.066;2023-03-31T10:51:55;99612.22;;;17.79;68.48
60583;BME280;46415;47.536;19.066;2023-03-31T10:54:59;99611.28;;;17.80;67.75
60583;BME280;46415;47.536;19.066;2023-03-31T11:05:21;99596.87;;;18.05;66.96
60583;BME280;46415;47.536;19.066;2023-03-31T11:15:29;99588.41;;;18.61;61.92
60583;BME280;46415;47.536;19.066;2023-03-31T11:22:21;99594.22;;;18.55;65.62
60583;BME280;46415;47.536;19.066;2023-03-31T11:25:42;99586.50;;;18.72;60.04
60583;BME280;46415;47.536;19.066;2023-03-31T11:28:57;99563.50;;;19.13;57.75
60583;BME280;46415;47.536;19.066;2023-03-31T11:42:11;99529.34;;;19.87;56.36
60583;BME280;46415;47.536;19.066;2023-03-31T11:52:02;99494.19;;;19.51;56.75
60583;BME280;46415;47.536;19.066;2023-03-31T11:55:17;99487.25;;;19.50;58.52
60583;BME280;46415;47.536;19.066;2023-03-31T12:02:02;99485.72;;;19.01;63.81
60583;BME280;46415;47.536;19.066;2023-03-31T12:05:07;99468.56;;;19.06;64.42
60583;BME280;46415;47.536;19.066;2023-03-31T12:08:16;99467.63;;;18.88;65.31
60583;BME280;46415;47.536;19.066;2023-03-31T12:11:32;99459.03;;;18.96;65.65
60583;BME280;46415;47.536;19.066;2023-03-31T12:14:47;99449.72;;;19.11;66.34
60583;BME280;46415;47.536;19.066;2023-03-31T12:18:23;99452.03;;;19.24;63.08
60583;BME280;46415;47.536;19.066;2023-03-31T12:21:28;99444.69;;;19.54;62.22
60583;BME280;46415;47.536;19.066;2023-03-31T12:24:33;99449.22;;;19.62;60.59
60583;BME280;46415;47.536;19.066;2023-03-31T12:27:40;99443.59;;;20.20;58.97
60583;BME280;46415;47.536;19.066;2023-03-31T12:30:44;99443.09;;;20.34;58.44
60583;BME280;46415;47.536;19.066;2023-03-31T12:33:56;99441.88;;;20.46;58.26
60583;BME280;46415;47.536;19.066;2023-03-31T12:50:49;99397.44;;;20.77;58.72
60583;BME280;46415;47.536;19.066;2023-03-31T12:54:00;99400.31;;;20.40;56.35
60583;BME280;46415;47.536;19.066;2023-03-31T13:00:24;99379.12;;;20.50;57.31
60583;BME280;46415;47.536;19.066;2023-03-31T13:07:33;99376.00;;;20.72;55.27
60583;BME280;46415;47.536;19.066;2023-03-31T13:11:09;99378.78;;;20.70;55.26
60583;BME280;46415;47.536;19.066;2023-03-31T13:14:16;99376.31;;;20.08;58.41
60583;BME280;46415;47.536;19.066;2023-03-31T13:17:32;99363.56;;;20.03;60.07
60583;BME280;46415;47.536;19.066;2023-03-31T13:20:38;99353.50;;;20.60;58.12
60583;BME280;46415;47.536;19.066;2023-03-31T13:23:44;99344.59;;;20.35;57.14
60583;BME280;46415;47.536;19.066;2023-03-31T13:26:48;99337.87;;;20.41;55.31
60583;BME280;46415;47.536;19.066;2023-03-31T13:29:52;99318.25;;;20.35;55.67
60583;BME280;46415;47.536;19.066;2023-03-31T13:33:07;99316.75;;;20.32;57.28
60583;BME280;46415;47.536;19.066;2023-03-31T14:03:27;99268.69;;;18.79;58.24
60583;BME280;46415;47.536;19.066;2023-03-31T14:06:47;99256.94;;;18.73;59.64
60583;BME280;46415;47.536;19.066;2023-03-31T14:09:52;99255.25;;;18.82;60.47
60583;BME280;46415;47.536;19.066;2023-03-31T14:13:16;99253.03;;;18.77;58.92
60583;BME280;46415;47.536;19.066;2023-03-31T14:16:20;99248.53;;;18.70;56.91
60583;BME280;46415;47.536;19.066;2023-03-31T14:22:52;99231.16;;;18.50;56.81
60583;BME280;46415;47.536;19.066;2023-03-31T14:36:05;99187.75;;;22.43;44.55
60583;BME280;46415;47.536;19.066;2023-03-31T14:39:10;99182.97;;;23.31;42.00
60583;BME280;46415;47.536;19.066;2023-03-31T14:42:19;99191.03;;;23.15;41.88
60583;BME280;46415;47.536;19.066;2023-03-31T14:45:30;99177.87;;;23.30;40.96
60583;BME280;46415;47.536;19.066;2023-03-31T14:48:39;99162.72;;;23.46;40.46
60583;BME280;46415;47.536;19.066;2023-03-31T14:51:46;99172.00;;;23.80;39.09
60583;BME280;46415;47.536;19.066;2023-03-31T14:54:51;99160.13;;;24.85;37.16
60583;BME280;46415;47.536;19.066;2023-03-31T14:57:59;99165.13;;;25.31;36.27
60583;BME280;46415;47.536;19.066;2023-03-31T15:01:05;99156.31;;;24.73;35.28
60583;BME280;46415;47.536;19.066;2023-03-31T15:04:12;99161.34;;;24.32;36.21
60583;BME280;46415;47.536;19.066;2023-03-31T15:07:16;99156.88;;;23.66;38.30
60583;BME280;46415;47.536;19.066;2023-03-31T15:10:20;99157.06;;;22.73;40.67
60583;BME280;46415;47.536;19.066;2023-03-31T15:13:33;99157.97;;;21.94;42.94
60583;BME280;46415;47.536;19.066;2023-03-31T15:16:40;99156.91;;;21.48;44.57
60583;BME280;46415;47.536;19.066;2023-03-31T15:19:44;99158.53;;;21.08;45.57
60583;BME280;46415;47.536;19.066;2023-03-31T15:22:47;99152.25;;;22.46;43.50
60583;BME280;46415;47.536;19.066;2023-03-31T15:26:01;99152.78;;;22.33;42.58
60583;BME280;46415;47.536;19.066;2023-03-31T15:29:32;99142.34;;;21.76;44.36
60583;BME280;46415;47.536;19.066;2023-03-31T15:32:38;99142.75;;;20.58;45.57
60583;BME280;46415;47.536;19.066;2023-03-31T15:35:42;99143.62;;;19.47;49.03
60583;BME280;46415;47.536;19.066;2023-03-31T15:38:46;99124.41;;;18.94;50.51
60583;BME280;46415;47.536;19.066;2023-03-31T15:41:49;99110.72;;;18.55;51.68
60583;BME280;46415;47.536;19.066;2023-03-31T15:44:55;99109.44;;;18.04;53.92
60583;BME280;46415;47.536;19.066;2023-03-31T15:48:00;99106.31;;;17.91;55.18
60583;BME280;46415;47.536;19.066;2023-03-31T15:51:18;99104.72;;;17.71;56.32
60583;BME280;46415;47.536;19.066;2023-03-31T15:54:40;99097.84;;;17.60;57.95
60583;BME280;46415;47.536;19.066;2023-03-31T15:57:43;99103.41;;;17.28;59.29
60583;BME280;46415;47.536;19.066;2023-03-31T16:00:50;99085.78;;;17.01;59.96
60583;BME280;46415;47.536;19.066;2023-03-31T16:03:53;99079.94;;;17.17;60.56
60583;BME280;46415;47.536;19.066;2023-03-31T16:07:06;99086.16;;;17.16;60.05
60583;BME280;46415;47.536;19.066;2023-03-31T16:10:19;99090.72;;;17.14;60.49
60583;BME280;46415;47.536;19.066;2023-03-31T16:13:24;99094.47;;;17.02;61.57
60583;BME280;46415;47.536;19.066;2023-03-31T16:16:28;99084.13;;;16.91;61.51
60583;BME280;46415;47.536;19.066;2023-03-31T16:19:40;99091.28;;;16.98;59.74
60583;BME280;46415;47.536;19.066;2023-03-31T16:22:48;99080.53;;;16.92;59.77
60583;BME280;46415;47.536;19.066;2023-03-31T16:25:52;99073.34;;;16.65;60.34
60583;BME280;46415;47.536;19.066;2023-03-31T16:28:56;99077.16;;;16.32;61.94
60583;BME280;46415;47.536;19.066;2023-03-31T16:32:16;99077.06;;;16.03;63.45
60583;BME280;46415;47.536;19.066;2023-03-31T16:35:19;99088.72;;;15.89;64.33
60583;BME280;46415;47.536;19.066;2023-03-31T16:38:24;99090.84;;;15.75;64.51
60583;BME280;46415;47.536;19.066;2023-03-31T16:41:27;99108.00;;;15.58;65.73
60583;BME280;46415;47.536;19.066;2023-03-31T16:44:31;99112.00;;;15.41;66.84
60583;BME280;46415;47.536;19.066;2023-03-31T16:47:34;99122.63;;;15.29;67.66
60583;BME280;46415;47.536;19.066;2023-03-31T16:50:37;99129.31;;;15.22;68.33
60583;BME280;46415;47.536;19.066;2023-03-31T16:53:43;99141.22;;;15.15;68.98
60583;BME280;46415;47.536;19.066;2023-03-31T16:56:45;99145.19;;;15.09;69.84
60583;BME280;46415;47.536;19.066;2023-03-31T16:59:49;99131.94;;;15.01;70.03
60583;BME280;46415;47.536;19.066;2023-03-31T17:02:52;99133.69;;;15.00;71.23
60583;BME280;46415;47.536;19.066;2023-03-31T17:05:56;99135.16;;;14.93;71.54
60583;BME280;46415;47.536;19.066;2023-03-31T17:09:03;99131.25;;;14.88;71.58
60583;BME280;46415;47.536;19.066;2023-03-31T17:12:06;99151.38;;;14.76;72.59
60583;BME280;46415;47.536;19.066;2023-03-31T17:15:09;99152.53;;;14.72;73.10
60583;BME280;46415;47.536;19.066;2023-03-31T17:18:12;99138.53;;;14.73;73.39
60583;BME280;46415;47.536;19.066;2023-03-31T17:21:15;99140.69;;;14.68;74.15
60583;BME280;46415;47.536;19.066;2023-03-31T17:24:21;99144.06;;;14.59;74.74
60583;BME280;46415;47.536;19.066;2023-03-31T17:27:24;99148.91;;;14.52;74.99
60583;BME280;46415;47.536;19.066;2023-03-31T17:30:27;99142.63;;;14.44;76.91
60583;BME280;46415;47.536;19.066;2023-03-31T17:33:30;99131.50;;;14.42;76.72
60583;BME280;46415;47.536;19.066;2023-03-31T17:36:33;99131.00;;;14.25;78.53
60583;BME280;46415;47.536;19.066;2023-03-31T17:39:35;99133.97;;;14.21;79.25
60583;BME280;46415;47.536;19.066;2023-03-31T17:42:38;99132.09;;;14.23;80.12
60583;BME280;46415;47.536;19.066;2023-03-31T17:45:41;99127.81;;;14.11;79.85
60583;BME280;46415;47.536;19.066;2023-03-31T17:48:44;99124.28;;;14.12;80.66
60583;BME280;46415;47.536;19.066;2023-03-31T17:51:46;99121.75;;;14.32;79.82
60583;BME280;46415;47.536;19.066;2023-03-31T17:54:49;99105.50;;;14.29;79.73
60583;BME280;46415;47.536;19.066;2023-03-31T17:57:52;99101.59;;;14.23;80.06
60583;BME280;46415;47.536;19.066;2023-03-31T18:00:55;99118.66;;;14.27;79.56
60583;BME280;46415;47.536;19.066;2023-03-31T18:03:59;99116.66;;;14.20;81.09
60583;BME280;46415;47.536;19.066;2023-03-31T18:07:01;99109.19;;;14.15;80.14
60583;BME280;46415;47.536;19.066;2023-03-31T18:10:05;99124.37;;;14.10;81.76
60583;BME280;46415;47.536;19.066;2023-03-31T18:13:07;99108.13;;;14.18;80.48
60583;BME280;46415;47.536;19.066;2023-03-31T18:16:12;99119.88;;;14.23;80.77
60583;BME280;46415;47.536;19.066;2023-03-31T18:19:15;99105.38;;;14.19;81.01
60583;BME280;46415;47.536;19.066;2023-03-31T18:22:18;99098.97;;;14.12;81.78
60583;BME280;46415;47.536;19.066;2023-03-31T18:25:20;99109.91;;;14.17;82.02
60583;BME280;46415;47.536;19.066;2023-03-31T18:28:23;99115.47;;;14.02;83.26
60583;BME280;46415;47.536;19.066;2023-03-31T18:31:26;99124.13;;;14.02;83.49
60583;BME280;46415;47.536;19.066;2023-03-31T18:34:29;99129.00;;;13.96;83.42
60583;BME280;46415;47.536;19.066;2023-03-31T18:37:32;99107.56;;;13.92;84.72